createdAt,value
2018-09-10T00:00:23.148Z,2.93
2018-09-10T00:02:51.928Z,2.23
2018-09-10T00:05:20.596Z,2.90
2018-09-10T00:07:49.054Z,2.80
2018-09-10T00:10:17.495Z,2.27
2018-09-10T00:12:45.912Z,2.43
2018-09-10T00:15:14.327Z,2.80
2018-09-10T00:17:43.036Z,2.67
2018-09-10T00:20:11.721Z,2.25
2018-09-10T00:22:40.229Z,2.42
2018-09-10T00:25:09.027Z,2.52
2018-09-10T00:27:38.199Z,2.75
2018-09-10T00:30:06.716Z,2.57
2018-09-10T00:32:35.142Z,2.83
2018-09-10T00:35:03.584Z,2.67
2018-09-10T00:37:32.085Z,2.80
2018-09-10T00:40:00.559Z,2.60
2018-09-10T00:42:28.988Z,2.70
2018-09-10T00:44:57.519Z,2.90
2018-09-10T00:47:26.037Z,2.98
2018-09-10T00:49:54.447Z,2.60
2018-09-10T00:52:22.916Z,2.85
2018-09-10T00:54:51.327Z,2.87
2018-09-10T00:57:19.767Z,2.27
2018-09-10T00:59:48.195Z,2.92
2018-09-10T01:02:16.695Z,3.15
2018-09-10T01:04:45.311Z,3.10
2018-09-10T01:07:13.933Z,2.80
2018-09-10T01:09:42.420Z,2.85
2018-09-10T01:12:10.861Z,2.52
2018-09-10T01:14:39.279Z,2.77
2018-09-10T01:17:07.737Z,3.20
2018-09-10T01:19:36.268Z,3.30
2018-09-10T01:22:04.760Z,2.70
2018-09-10T01:24:33.288Z,3.00
2018-09-10T01:27:01.713Z,2.90
2018-09-10T01:29:30.189Z,3.37
2018-09-10T01:31:58.595Z,2.75
2018-09-10T01:34:32.331Z,3.33
2018-09-10T01:37:00.757Z,2.52
2018-09-10T01:39:29.241Z,2.80
2018-09-10T01:41:57.780Z,3.02
2018-09-10T01:44:26.302Z,2.95
2018-09-10T01:46:54.778Z,2.92
2018-09-10T01:49:23.220Z,3.20
2018-09-10T01:51:51.752Z,3.15
2018-09-10T01:54:20.192Z,3.20
2018-09-10T01:56:49.355Z,3.42
2018-09-10T01:59:17.800Z,2.75
2018-09-10T02:01:46.278Z,2.60
2018-09-10T02:04:14.860Z,3.30
2018-09-10T02:06:43.400Z,2.92
2018-09-10T02:09:11.879Z,3.20
2018-09-10T02:11:40.288Z,3.20
2018-09-10T02:14:08.872Z,3.10
2018-09-10T02:16:37.309Z,3.15
2018-09-10T02:19:06.212Z,3.00
2018-09-10T02:21:34.625Z,3.00
2018-09-10T02:24:03.080Z,3.02
2018-09-10T02:26:31.605Z,3.20
2018-09-10T02:29:00.115Z,2.95
2018-09-10T02:31:28.541Z,2.62
2018-09-10T02:33:57.021Z,3.45
2018-09-10T02:36:25.431Z,3.65
2018-09-10T02:38:53.948Z,2.65
2018-09-10T02:41:22.388Z,3.75
2018-09-10T02:43:50.931Z,4.00
2018-09-10T02:46:19.506Z,2.67
2018-09-10T02:48:48.341Z,3.77
2018-09-10T02:51:16.848Z,3.20
2018-09-10T02:53:45.313Z,3.35
2018-09-10T02:56:13.764Z,3.35
2018-09-10T02:58:42.187Z,3.22
2018-09-10T03:01:10.629Z,3.55
2018-09-10T03:03:39.045Z,3.20
2018-09-10T03:06:07.638Z,3.20
2018-09-10T03:08:36.144Z,2.95
2018-09-10T03:11:04.593Z,3.00
2018-09-10T03:13:33.009Z,3.08
2018-09-10T03:16:02.530Z,2.98
2018-09-10T03:18:31.016Z,3.05
2018-09-10T03:20:59.489Z,2.80
2018-09-10T03:23:27.963Z,3.00
2018-09-10T03:25:56.720Z,3.30
2018-09-10T03:28:25.173Z,3.17
2018-09-10T03:30:53.700Z,3.80
2018-09-10T03:33:22.202Z,3.17
2018-09-10T03:35:50.609Z,3.25
2018-09-10T03:38:19.081Z,3.10
2018-09-10T03:40:47.668Z,2.90
2018-09-10T03:43:16.124Z,3.62
2018-09-10T03:45:44.692Z,3.20
2018-09-10T03:48:13.212Z,3.50
2018-09-10T03:50:41.646Z,3.35
2018-09-10T03:53:10.107Z,3.27
2018-09-10T03:55:38.661Z,2.90
2018-09-10T03:58:07.173Z,3.02
2018-09-10T04:00:35.635Z,3.27
2018-09-10T04:03:04.115Z,3.37
2018-09-10T04:05:32.656Z,3.75
2018-09-10T04:08:01.365Z,3.50
2018-09-10T04:10:29.806Z,3.27
2018-09-10T04:12:58.298Z,3.67
2018-09-10T04:15:26.939Z,3.72
2018-09-10T04:17:55.412Z,4.37
2018-09-10T04:20:24.016Z,3.50
2018-09-10T04:22:52.476Z,3.40
2018-09-10T04:25:20.988Z,3.85
2018-09-10T04:27:49.439Z,3.17
2018-09-10T04:30:18.029Z,3.37
2018-09-10T04:32:46.493Z,3.47
2018-09-10T04:35:14.951Z,3.42
2018-09-10T04:37:43.436Z,3.75
2018-09-10T04:40:11.908Z,3.65
2018-09-10T04:42:40.965Z,2.95
2018-09-10T04:45:09.434Z,3.62
2018-09-10T04:47:37.872Z,3.83
2018-09-10T04:50:06.729Z,3.40
2018-09-10T04:52:35.193Z,3.37
2018-09-10T04:55:03.692Z,3.95
2018-09-10T04:57:32.896Z,3.20
2018-09-10T05:00:01.558Z,3.55
2018-09-10T05:02:30.113Z,3.80
2018-09-10T05:04:58.643Z,3.75
2018-09-10T05:07:27.117Z,3.52
2018-09-10T05:09:55.645Z,3.98
2018-09-10T05:12:24.038Z,4.08
2018-09-10T05:14:52.513Z,3.52
2018-09-10T05:17:20.977Z,3.52
2018-09-10T05:19:49.504Z,3.85
2018-09-10T05:22:18.056Z,3.72
2018-09-10T05:24:46.522Z,3.42
2018-09-10T05:27:15.032Z,4.87
2018-09-10T05:29:43.515Z,4.35
2018-09-10T05:32:12.101Z,3.40
2018-09-10T05:34:40.631Z,4.20
2018-09-10T05:37:09.104Z,3.60
2018-09-10T05:44:38.611Z,3.60
2018-09-10T05:47:07.093Z,4.65
2018-09-10T05:49:35.636Z,5.33
2018-09-10T05:52:04.105Z,4.65
2018-09-10T05:54:32.521Z,4.95
2018-09-10T05:57:01.048Z,4.60
2018-09-10T05:59:29.542Z,4.62
2018-09-10T06:01:58.013Z,4.92
2018-09-10T06:04:27.543Z,4.37
2018-09-10T06:06:56.099Z,4.75
2018-09-10T06:09:24.525Z,5.40
2018-09-10T06:11:53.020Z,5.55
2018-09-10T06:14:21.431Z,4.42
2018-09-10T06:16:49.886Z,5.17
2018-09-10T06:19:18.324Z,6.37
2018-09-10T06:21:46.803Z,5.72
2018-09-10T06:24:15.254Z,5.25
2018-09-10T06:26:43.744Z,5.95
2018-09-10T06:29:12.267Z,5.78
2018-09-10T06:31:40.785Z,4.83
2018-09-10T06:34:09.382Z,5.00
2018-09-10T06:36:37.786Z,5.53
2018-09-10T06:39:08.928Z,5.75
2018-09-10T06:41:37.539Z,5.92
2018-09-10T06:44:06.292Z,4.57
2018-09-10T06:46:34.765Z,4.60
2018-09-10T06:49:03.265Z,5.00
2018-09-10T06:51:31.764Z,4.80
2018-09-10T06:54:00.197Z,4.60
2018-09-10T06:56:28.676Z,4.97
2018-09-10T06:58:57.131Z,4.70
2018-09-10T07:01:25.628Z,4.43
2018-09-10T07:03:54.066Z,4.23
2018-09-10T07:06:22.668Z,4.30
2018-09-10T07:08:51.109Z,3.30
2018-09-10T07:11:19.557Z,4.03
2018-09-10T07:13:48.044Z,4.10
2018-09-10T07:16:17.047Z,3.80
2018-09-10T07:18:45.596Z,3.67
2018-09-10T07:21:14.048Z,3.63
2018-09-10T07:23:42.496Z,3.60
2018-09-10T07:26:11.099Z,3.43
2018-09-10T07:28:39.500Z,3.70
2018-09-10T07:31:08.002Z,3.50
2018-09-10T07:33:36.406Z,3.70
2018-09-10T07:36:05.057Z,4.17
2018-09-10T07:38:33.483Z,3.53
2018-09-10T07:41:01.978Z,3.67
2018-09-10T07:43:30.418Z,3.07
2018-09-10T07:45:59.059Z,3.30
2018-09-10T07:48:27.516Z,3.17
2018-09-10T07:50:55.977Z,3.00
2018-09-10T07:53:24.488Z,3.80
2018-09-10T07:55:53.028Z,3.50
2018-09-10T07:58:21.515Z,3.53
2018-09-10T08:00:50.029Z,3.10
2018-09-10T08:03:18.474Z,3.37
2018-09-10T08:05:46.961Z,3.43
2018-09-10T08:08:15.456Z,3.60
2018-09-10T08:10:43.889Z,3.07
2018-09-10T08:13:12.515Z,3.83
2018-09-10T08:15:40.962Z,3.40
2018-09-10T08:18:09.471Z,3.10
2018-09-10T08:20:37.966Z,3.17
2018-09-10T08:23:06.677Z,3.50
2018-09-10T08:25:35.148Z,3.97
2018-09-10T08:28:03.660Z,3.20
2018-09-10T08:30:32.242Z,3.23
2018-09-10T08:33:00.688Z,3.27
2018-09-10T08:35:29.274Z,3.10
2018-09-10T08:37:57.700Z,3.10
2018-09-10T08:40:26.164Z,3.80
2018-09-10T08:42:54.674Z,3.30
2018-09-10T08:45:23.073Z,3.70
2018-09-10T08:47:51.505Z,3.53
2018-09-10T08:50:20.006Z,3.57
2018-09-10T08:52:48.773Z,3.13
2018-09-10T08:55:17.537Z,2.33
2018-09-10T08:57:45.928Z,2.43
2018-09-10T09:00:14.415Z,2.33
2018-09-10T09:02:43.583Z,3.10
2018-09-10T09:05:12.159Z,3.00
2018-09-10T09:07:40.548Z,2.53
2018-09-10T09:10:09.073Z,2.37
2018-09-10T09:12:37.510Z,2.23
2018-09-10T09:15:06.057Z,2.13
2018-09-10T09:17:34.767Z,2.40
2018-09-10T09:20:03.236Z,2.13
2018-09-10T09:22:31.710Z,2.30
2018-09-10T09:25:00.177Z,2.10
2018-09-10T09:27:28.712Z,1.93
2018-09-10T09:29:57.274Z,2.37
2018-09-10T09:32:26.035Z,1.70
2018-09-10T09:34:55.935Z,2.27
2018-09-10T09:37:30.264Z,2.10
2018-09-10T09:40:03.979Z,2.53
2018-09-10T09:42:37.780Z,2.10
2018-09-10T09:45:11.857Z,1.83
2018-09-10T09:47:40.374Z,1.50
2018-09-10T09:50:08.812Z,1.70
2018-09-10T09:52:37.321Z,1.53
2018-09-10T09:55:06.209Z,1.63
2018-09-10T09:57:34.698Z,1.40
2018-09-10T10:00:03.428Z,1.70
2018-09-10T10:03:35.777Z,1.40
2018-09-10T10:06:04.347Z,1.53
2018-09-10T10:08:33.059Z,1.30
2018-09-10T10:11:01.592Z,1.30
2018-09-10T10:13:30.121Z,1.50
2018-09-10T10:15:58.548Z,1.33
2018-09-10T10:18:27.065Z,1.20
2018-09-10T10:20:55.512Z,1.47
2018-09-10T10:23:23.945Z,1.00
2018-09-10T10:25:52.404Z,1.30
2018-09-10T10:28:21.016Z,1.33
2018-09-10T10:30:49.556Z,1.33
2018-09-10T10:33:17.998Z,1.50
2018-09-10T10:35:46.488Z,1.20
2018-09-10T10:38:15.017Z,1.70
2018-09-10T10:40:43.556Z,1.57
2018-09-10T10:43:12.050Z,1.47
2018-09-10T10:45:40.518Z,1.30
2018-09-10T10:48:08.988Z,1.70
2018-09-10T10:50:37.747Z,1.17
2018-09-10T10:53:06.399Z,1.50
2018-09-10T10:55:34.916Z,1.40
2018-09-10T10:58:03.979Z,1.60
2018-09-10T11:00:32.421Z,1.60
2018-09-10T11:03:00.987Z,1.80
2018-09-10T11:05:29.535Z,1.47
2018-09-10T11:07:58.489Z,1.40
2018-09-10T11:10:26.955Z,1.53
2018-09-10T11:12:55.510Z,1.67
2018-09-10T11:15:23.956Z,1.50
2018-09-10T11:17:52.403Z,1.33
2018-09-10T11:20:21.169Z,1.40
2018-09-10T11:22:49.844Z,1.20
2018-09-10T11:25:18.376Z,1.47
2018-09-10T11:27:46.942Z,1.30
2018-09-10T11:30:15.608Z,1.40
2018-09-10T11:32:44.106Z,1.20
2018-09-10T11:35:12.572Z,1.37
2018-09-10T11:37:41.068Z,1.50
2018-09-10T11:40:09.548Z,1.97
2018-09-10T11:42:38.113Z,1.63
2018-09-10T11:45:06.688Z,1.73
2018-09-10T11:47:35.585Z,2.00
2018-09-10T11:50:04.112Z,2.07
2018-09-10T11:52:32.600Z,2.00
2018-09-10T11:55:01.069Z,1.60
2018-09-10T11:57:29.479Z,1.43
2018-09-10T11:59:58.655Z,1.60
2018-09-10T12:02:27.088Z,1.97
2018-09-10T12:04:55.560Z,1.80
2018-09-10T12:07:24.676Z,1.90
2018-09-10T12:09:53.122Z,2.10
2018-09-10T12:12:21.629Z,1.67
2018-09-10T12:14:50.129Z,2.10
2018-09-10T12:17:18.554Z,2.20
2018-09-10T12:19:47.029Z,1.80
2018-09-10T12:22:15.641Z,2.27
2018-09-10T12:24:44.170Z,2.50
2018-09-10T12:27:12.616Z,2.60
2018-09-10T12:29:41.136Z,2.13
2018-09-10T12:32:09.573Z,2.60
2018-09-10T12:34:37.992Z,2.17
2018-09-10T12:37:06.459Z,2.70
2018-09-10T12:39:35.016Z,1.80
2018-09-10T12:42:03.866Z,2.63
2018-09-10T12:44:32.439Z,2.30
2018-09-10T12:47:00.913Z,2.40
2018-09-10T12:49:29.337Z,2.37
2018-09-10T12:51:57.832Z,2.40
2018-09-10T12:54:26.289Z,2.23
2018-09-10T12:56:54.815Z,2.47
2018-09-10T12:59:24.288Z,2.60
2018-09-10T13:01:53.387Z,2.27
2018-09-10T13:04:22.044Z,2.13
2018-09-10T13:06:50.460Z,2.40
2018-09-10T13:09:18.965Z,2.00
2018-09-10T13:11:47.593Z,2.27
2018-09-10T13:14:16.104Z,2.47
2018-09-10T13:16:44.599Z,2.60
2018-09-10T13:19:13.090Z,2.00
2018-09-10T13:21:41.720Z,2.30
2018-09-10T13:24:10.234Z,2.13
2018-09-10T13:26:38.796Z,2.40
2018-09-10T13:29:07.260Z,2.30
2018-09-10T13:31:35.749Z,2.23
2018-09-10T13:34:04.264Z,2.10
2018-09-10T13:36:32.754Z,2.83
2018-09-10T13:39:01.173Z,2.30
2018-09-10T13:41:29.792Z,2.00
2018-09-10T13:43:58.276Z,2.40
2018-09-10T13:46:26.818Z,2.23
2018-09-10T13:48:55.363Z,2.37
2018-09-10T13:51:23.984Z,2.40
2018-09-10T13:53:52.561Z,1.83
2018-09-10T13:56:21.216Z,2.80
2018-09-10T13:58:49.814Z,2.80
2018-09-10T14:01:18.253Z,2.40
2018-09-10T14:03:46.729Z,2.30
2018-09-10T14:06:15.434Z,2.20
2018-09-10T14:08:43.872Z,2.50
2018-09-10T14:11:12.540Z,2.30
2018-09-10T14:13:41.004Z,2.40
2018-09-10T14:16:09.481Z,2.80
2018-09-10T14:18:37.942Z,2.40
2018-09-10T14:21:06.475Z,2.57
2018-09-10T14:23:35.573Z,2.27
2018-09-10T14:26:04.334Z,2.80
2018-09-10T14:28:33.125Z,2.53
2018-09-10T14:31:01.621Z,2.13
2018-09-10T14:33:30.653Z,2.67
2018-09-10T14:35:59.980Z,2.60
2018-09-10T14:38:28.444Z,2.30
2018-09-10T14:40:57.017Z,2.50
2018-09-10T14:43:25.501Z,2.17
2018-09-10T14:45:54.504Z,2.17
2018-09-10T14:48:23.557Z,2.50
2018-09-10T14:50:52.044Z,2.90
2018-09-10T14:53:20.508Z,2.57
2018-09-10T14:55:49.096Z,2.40
2018-09-10T14:58:17.761Z,2.70
2018-09-10T15:00:46.198Z,2.23
2018-09-10T15:03:14.658Z,2.50
2018-09-10T15:05:43.168Z,2.83
2018-09-10T15:08:11.720Z,2.17
2018-09-10T15:10:40.234Z,2.47
2018-09-10T15:13:08.676Z,2.30
2018-09-10T15:15:37.253Z,2.17
2018-09-10T15:18:05.731Z,2.30
2018-09-10T15:20:34.253Z,2.37
2018-09-10T15:23:02.800Z,2.20
2018-09-10T15:25:31.318Z,2.40
2018-09-10T15:27:59.741Z,2.50
2018-09-10T15:30:28.243Z,2.30
2018-09-10T15:32:56.719Z,2.60
2018-09-10T15:35:25.161Z,2.27
2018-09-10T15:37:53.649Z,2.40
2018-09-10T15:40:22.066Z,2.30
2018-09-10T15:42:50.546Z,2.73
2018-09-10T15:45:19.028Z,2.30
2018-09-10T15:47:47.445Z,2.20
2018-09-10T15:50:15.958Z,2.40
2018-09-10T15:52:45.745Z,2.30
2018-09-10T15:55:15.221Z,2.20
2018-09-10T15:57:43.731Z,2.40
2018-09-10T16:00:12.237Z,2.90
2018-09-10T16:02:40.692Z,2.40
2018-09-10T16:05:09.259Z,2.57
2018-09-10T16:07:37.952Z,2.10
2018-09-10T16:10:06.688Z,2.03
2018-09-10T16:12:35.171Z,2.00
2018-09-10T16:15:03.759Z,2.23
2018-09-10T16:17:32.316Z,2.60
2018-09-10T16:20:00.937Z,2.03
2018-09-10T16:22:29.371Z,2.43
2018-09-10T16:24:57.849Z,2.70
2018-09-10T16:27:26.449Z,2.40
2018-09-10T16:29:55.062Z,2.40
2018-09-10T16:32:23.599Z,2.20
2018-09-10T16:34:52.061Z,2.20
2018-09-10T16:37:20.737Z,2.50
2018-09-10T16:39:49.258Z,2.57
2018-09-10T16:42:17.772Z,3.20
2018-09-10T16:44:46.350Z,4.40
2018-09-10T16:47:14.852Z,4.20
2018-09-10T16:49:44.098Z,2.87
2018-09-10T16:52:12.796Z,4.13
2018-09-10T16:54:41.420Z,3.10
2018-09-10T16:57:09.875Z,3.20
2018-09-10T16:59:38.919Z,3.30
2018-09-10T17:02:07.817Z,2.80
2018-09-10T17:04:36.771Z,2.93
2018-09-10T17:07:05.321Z,2.60
2018-09-10T17:09:33.844Z,2.43
2018-09-10T17:12:02.422Z,3.03
2018-09-10T17:14:31.543Z,2.70
2018-09-10T17:17:00.028Z,2.77
2018-09-10T17:19:28.479Z,3.10
2018-09-10T17:21:57.012Z,3.10
2018-09-10T17:24:25.484Z,3.00
2018-09-10T17:26:54.070Z,3.33
2018-09-10T17:29:22.522Z,3.17
2018-09-10T17:31:51.073Z,2.80
2018-09-10T17:34:19.728Z,2.93
2018-09-10T17:36:48.215Z,2.67
2018-09-10T17:39:16.720Z,2.97
2018-09-10T17:41:45.179Z,3.40
2018-09-10T17:44:13.998Z,2.83
2018-09-10T17:46:42.523Z,3.00
2018-09-10T17:49:10.948Z,2.93
2018-09-10T17:51:39.445Z,2.57
2018-09-10T17:54:07.917Z,2.70
2018-09-10T17:56:36.698Z,2.70
2018-09-10T17:59:05.213Z,2.90
2018-09-10T18:01:33.717Z,3.30
2018-09-10T18:04:02.226Z,3.10
2018-09-10T18:06:30.748Z,3.00
2018-09-10T18:08:59.284Z,3.00
2018-09-10T18:11:27.834Z,3.27
2018-09-10T18:13:56.457Z,3.30
2018-09-10T18:16:25.086Z,2.50
2018-09-10T18:18:53.577Z,2.90
2018-09-10T18:21:22.778Z,2.87
2018-09-10T18:23:51.322Z,2.63
2018-09-10T18:26:19.892Z,3.30
2018-09-10T18:28:48.344Z,2.63
2018-09-10T18:31:16.847Z,3.00
2018-09-10T18:33:45.607Z,2.93
2018-09-10T18:36:14.182Z,2.70
2018-09-10T18:38:43.226Z,3.50
2018-09-10T18:41:11.859Z,2.73
2018-09-10T18:43:40.849Z,2.97
2018-09-10T18:46:09.517Z,3.37
2018-09-10T18:48:38.113Z,3.30
2018-09-10T18:51:06.999Z,2.70
2018-09-10T18:53:36.096Z,3.03
2018-09-10T18:56:04.606Z,3.30
2018-09-10T18:58:33.276Z,2.73
2018-09-10T19:01:02.154Z,3.70
2018-09-10T19:03:30.870Z,3.00
2018-09-10T19:05:59.897Z,3.00
2018-09-10T19:08:28.452Z,3.27
2018-09-10T19:10:57.011Z,3.50
2018-09-10T19:13:25.610Z,3.27
2018-09-10T19:15:54.075Z,3.60
2018-09-10T19:18:26.799Z,3.63
2018-09-10T19:20:55.395Z,3.30
2018-09-10T19:23:23.895Z,3.13
2018-09-10T19:25:52.379Z,3.23
2018-09-10T19:28:20.841Z,3.30
2018-09-10T19:30:49.292Z,4.00
2018-09-10T19:33:18.514Z,3.70
2018-09-10T19:35:46.981Z,3.70
2018-09-10T19:38:15.440Z,3.23
2018-09-10T19:40:43.978Z,3.40
2018-09-10T19:43:12.536Z,3.37
2018-09-10T19:45:41.110Z,3.80
2018-09-10T19:48:09.730Z,3.73
2018-09-10T19:50:38.373Z,3.47
2018-09-10T19:53:07.848Z,3.27
2018-09-10T19:55:36.352Z,4.00
2018-09-10T19:58:04.871Z,3.10
2018-09-10T20:00:33.369Z,4.30
2018-09-10T20:03:02.176Z,3.40
2018-09-10T20:05:30.779Z,3.60
2018-09-10T20:07:59.561Z,3.30
2018-09-10T20:10:28.065Z,4.47
2018-09-10T20:12:56.530Z,3.90
2018-09-10T20:15:25.064Z,3.40
2018-09-10T20:17:53.572Z,3.30
2018-09-10T20:20:22.053Z,3.40
2018-09-10T20:22:50.656Z,3.50
2018-09-10T20:25:19.278Z,3.10
2018-09-10T20:27:47.708Z,3.80
2018-09-10T20:30:16.208Z,3.60
2018-09-10T20:32:44.666Z,3.53
2018-09-10T20:35:13.707Z,3.10
2018-09-10T20:37:42.133Z,4.23
2018-09-10T20:40:10.608Z,3.50
2018-09-10T20:42:39.118Z,4.43
2018-09-10T20:45:07.754Z,3.80
2018-09-10T20:47:36.200Z,3.57
2018-09-10T20:50:04.821Z,4.00
2018-09-10T20:52:33.329Z,4.10
2018-09-10T20:55:01.956Z,4.20
2018-09-10T20:57:30.585Z,3.80
2018-09-10T20:59:59.053Z,3.50
2018-09-10T21:02:27.596Z,3.90
2018-09-10T21:04:56.096Z,3.90
2018-09-10T21:07:24.634Z,3.80
2018-09-10T21:09:53.045Z,3.50
2018-09-10T21:12:21.554Z,3.63
2018-09-10T21:14:49.974Z,4.03
2018-09-10T21:17:18.424Z,4.13
2018-09-10T21:19:46.915Z,3.50
2018-09-10T21:22:15.424Z,3.90
2018-09-10T21:24:44.021Z,3.40
2018-09-10T21:27:12.509Z,3.50
2018-09-10T21:29:40.969Z,3.70
2018-09-10T21:32:09.719Z,3.50
2018-09-10T21:34:38.146Z,4.17
2018-09-10T21:37:07.946Z,3.87
2018-09-10T21:39:36.430Z,3.70
2018-09-10T21:42:04.858Z,3.30
2018-09-10T21:44:33.296Z,4.07
2018-09-10T21:47:01.759Z,3.80
2018-09-10T21:49:30.229Z,4.20
2018-09-10T21:51:58.867Z,4.53
2018-09-10T21:54:27.312Z,3.20
2018-09-10T21:56:55.950Z,4.27
2018-09-10T21:59:24.403Z,4.30
2018-09-10T22:01:52.832Z,3.23
2018-09-10T22:04:21.267Z,4.27
2018-09-10T22:06:49.717Z,4.27
2018-09-10T22:09:18.288Z,4.03
2018-09-10T22:11:52.068Z,4.17
2018-09-10T22:14:20.550Z,3.80
2018-09-10T22:16:49.060Z,3.80
2018-09-10T22:19:17.538Z,4.00
2018-09-10T22:21:46.758Z,3.90
2018-09-10T22:24:15.185Z,3.80
2018-09-10T22:26:43.628Z,3.60
2018-09-10T22:29:12.060Z,3.93
2018-09-10T22:31:40.622Z,4.00
2018-09-10T22:34:09.168Z,3.43
2018-09-10T22:36:37.728Z,4.40
2018-09-10T22:39:09.373Z,4.10
2018-09-10T22:41:37.903Z,4.13
2018-09-10T22:44:06.642Z,3.60
2018-09-10T22:46:35.667Z,4.20
2018-09-10T22:49:04.486Z,4.40
2018-09-10T22:51:33.076Z,3.80
2018-09-10T22:54:01.654Z,4.10
2018-09-10T22:56:30.228Z,4.27
2018-09-10T22:58:58.752Z,4.13
2018-09-10T23:01:27.269Z,4.00
2018-09-10T23:03:55.791Z,4.27
2018-09-10T23:06:24.241Z,4.07
2018-09-10T23:08:52.693Z,3.70
2018-09-10T23:11:21.148Z,4.20
2018-09-10T23:13:49.600Z,3.93
2018-09-10T23:16:18.040Z,4.90
2018-09-10T23:18:46.486Z,3.90
2018-09-10T23:21:14.958Z,4.00
2018-09-10T23:23:43.398Z,4.10
2018-09-10T23:26:11.898Z,4.23
2018-09-10T23:28:40.413Z,4.10
2018-09-10T23:31:08.931Z,4.30
2018-09-10T23:33:37.424Z,4.40
2018-09-10T23:36:05.963Z,4.30
2018-09-10T23:38:34.408Z,3.70
2018-09-10T23:41:03.012Z,3.80
2018-09-10T23:43:31.480Z,4.13
2018-09-10T23:46:00.478Z,3.97
2018-09-10T23:48:29.152Z,4.00
2018-09-10T23:50:57.661Z,4.23
2018-09-10T23:53:26.100Z,4.90
2018-09-10T23:55:54.938Z,3.93
2018-09-10T23:58:23.408Z,4.07
